Time;durP1;ratioP1;P1;durP2;ratioP2;P2;SDS_P1;SDS_P2;PMS_P1;PMS_P2;Temp;Humidity;BMP_temperature;BMP_pressure;BME280_temperature;BME280_humidity;BME280_pressure;Samples;Min_cycle;Max_cycle;Signal;HPM_P1;HPM_P2
2022/10/05 00:01:26;;;;;;;8.55;3.75;;;;;;;10.49;62.21;100783.53;7562836;33;39883;-73
2022/10/05 00:05:44;;;;;;;9.23;3.83;;;;;;;10.69;61.61;100782.22;7580484;33;38695;-73
2022/10/05 00:10:09;;;;;;;5.47;3.58;;;;;;;10.68;61.72;100781.41;7591357;32;37202;-73
2022/10/05 00:14:34;;;;;;;8.32;4.40;;;;;;;10.79;61.53;100787.84;7529240;33;39667;-73
2022/10/05 00:18:52;;;;;;;6.62;3.72;;;;;;;10.33;62.86;100797.97;7529001;33;39771;-72
2022/10/05 00:23:14;;;;;;;6.80;3.37;;;;;;;10.12;63.24;100783.97;7566114;33;37961;-73
2022/10/05 00:27:37;;;;;;;6.47;3.55;;;;;;;10.57;61.41;100782.28;7590821;32;36808;-72
2022/10/05 00:31:53;;;;;;;;;;;;;;;10.69;61.05;100782.22;7559323;33;40108;-73
2022/10/05 00:36:09;;;;;;;9.00;3.72;;;;;;;10.56;61.92;100788.03;7554642;33;41147;-73
2022/10/05 00:41:08;;;;;;;8.98;4.87;;;;;;;10.53;62.51;100781.16;7576357;33;37675;-73
2022/10/05 00:45:31;;;;;;;9.98;4.50;;;;;;;10.37;62.67;100790.97;7520755;33;37906;-73
2022/10/05 00:50:02;;;;;;;8.77;3.95;;;;;;;10.32;62.83;100786.25;7564915;33;40341;-73
2022/10/05 00:54:48;;;;;;;7.35;3.95;;;;;;;10.50;62.32;100793.37;7579884;33;40829;-73
2022/10/05 00:59:41;;;;;;;8.60;4.10;;;;;;;10.30;62.49;100802.00;7558957;33;38509;-73
2022/10/05 01:04:09;;;;;;;8.82;4.43;;;;;;;10.28;63.05;100800.59;7554013;33;37176;-73
2022/10/05 01:09:03;;;;;;;8.77;4.47;;;;;;;10.08;63.25;100804.59;7562935;33;39386;-71
2022/10/05 01:13:49;;;;;;;7.82;4.28;;;;;;;10.20;62.61;100809.16;7533159;33;39926;-73
2022/10/05 01:18:11;;;;;;;9.98;4.45;;;;;;;10.25;62.43;100812.00;7559564;33;37890;-72
2022/10/05 01:22:51;;;;;;;11.10;3.87;;;;;;;9.90;63.32;100818.38;7579307;33;37097;-73
2022/10/05 01:27:35;;;;;;;9.20;4.15;;;;;;;10.07;62.83;100808.41;7558636;33;39453;-72
2022/10/05 01:32:19;;;;;;;9.45;4.07;;;;;;;10.08;62.58;100801.84;7554245;33;39857;-72
2022/10/05 01:36:53;;;;;;;;;;;;;;;10.02;63.13;100788.38;7552525;33;38784;-72
2022/10/05 01:41:24;;;;;;;9.30;3.58;;;;;;;10.10;62.42;100797.00;7563655;33;36897;-73
2022/10/05 01:45:50;;;;;;;11.32;3.97;;;;;;;9.63;62.94;100810.78;7557139;33;39481;-73
2022/10/05 01:50:30;;;;;;;6.65;3.75;;;;;;;9.70;62.89;100814.19;7555419;33;39727;-73
2022/10/05 01:55:12;;;;;;;6.90;3.85;;;;;;;9.44;63.56;100822.91;7587637;32;38109;-72
2022/10/05 01:59:52;;;;;;;10.05;4.30;;;;;;;9.51;63.31;100818.97;7817905;27;36862;-69
2022/10/05 02:04:17;;;;;;;9.43;3.78;;;;;;;9.39;62.82;100823.59;7613665;32;39934;-69
2022/10/05 02:09:07;;;;;;;7.75;3.47;;;;;;;9.47;62.97;100825.12;7629949;32;40310;-70
2022/10/05 02:13:40;;;;;;;7.00;3.42;;;;;;;9.53;63.29;100835.06;7643124;32;39333;-70
2022/10/05 02:18:08;;;;;;;8.80;3.65;;;;;;;9.73;62.56;100827.34;7644205;32;36940;-69
2022/10/05 02:22:44;;;;;;;9.15;3.87;;;;;;;9.36;63.49;100837.69;7643946;32;39920;-70
2022/10/05 02:27:01;;;;;;;5.45;3.17;;;;;;;9.77;62.45;100831.22;7617625;32;40070;-70
2022/10/05 02:31:21;;;;;;;5.30;3.28;;;;;;;9.64;62.64;100847.84;7607428;32;38724;-70
2022/10/05 02:35:38;;;;;;;8.18;3.62;;;;;;;9.89;61.83;100844.00;7625664;32;37359;-70
2022/10/05 02:40:41;;;;;;;5.78;3.40;;;;;;;10.01;61.26;100847.50;7644488;32;39042;-70
2022/10/05 02:45:52;;;;;;;7.47;3.80;;;;;;;9.80;61.63;100848.16;7611181;32;38076;-69
2022/10/05 02:50:25;;;;;;;6.65;3.28;;;;;;;9.82;61.80;100855.00;7589475;32;38586;-70
2022/10/05 02:55:09;;;;;;;7.43;3.50;;;;;;;9.96;61.05;100831.06;7631982;32;37041;-70
2022/10/05 02:59:42;;;;;;;9.50;4.05;;;;;;;9.52;62.43;100825.22;7643603;32;39494;-70
2022/10/05 03:04:20;;;;;;;7.15;3.62;;;;;;;9.44;62.95;100821.00;7632912;32;39948;-70
2022/10/05 03:09:00;;;;;;;7.78;3.95;;;;;;;9.51;63.32;100815.44;7633177;32;37827;-70
2022/10/05 03:13:39;;;;;;;10.50;4.32;;;;;;;9.46;63.01;100818.03;7632868;32;37134;-69
2022/10/05 03:17:58;;;;;;;7.43;4.05;;;;;;;9.23;63.77;100819.72;7632830;32;40200;-70
2022/10/05 03:22:52;;;;;;;8.50;3.75;;;;;;;9.39;63.68;100816.25;7632455;32;40091;-70
2022/10/05 03:27:17;;;;;;;8.48;4.87;;;;;;;9.61;62.62;100826.53;7632890;32;37825;-70
2022/10/05 03:31:54;;;;;;;7.50;4.07;;;;;;;8.98;65.78;100826.22;7643793;32;37152;-69
2022/10/05 03:36:42;;;;;;;8.45;4.10;;;;;;;8.97;64.90;100838.19;7643983;32;39019;-70
2022/10/05 03:41:21;;;;;;;7.55;3.50;;;;;;;9.22;64.47;100837.09;7642230;32;39949;-69
2022/10/05 03:45:47;;;;;;;11.18;4.05;;;;;;;9.31;64.24;100837.56;7642907;32;37934;-70
2022/10/05 03:50:41;;;;;;;16.05;4.30;;;;;;;9.27;64.38;100839.94;7632684;32;38219;-70
2022/10/05 03:55:22;;;;;;;7.25;3.75;;;;;;;9.29;64.00;100834.25;7623372;32;39196;-70
2022/10/05 03:59:55;;;;;;;4.82;3.45;;;;;;;9.05;63.96;100844.31;7641668;32;40863;-70
2022/10/05 04:04:16;;;;;;;7.63;4.00;;;;;;;9.02;63.77;100841.03;7632527;32;38798;-70
2022/10/05 04:08:38;;;;;;;6.68;3.92;;;;;;;8.70;64.47;100837.78;7643273;32;37799;-70
2022/10/05 04:13:23;;;;;;;8.73;4.07;;;;;;;9.07;63.44;100831.31;7643125;32;40105;-70
2022/10/05 04:17:45;;;;;;;6.90;4.10;;;;;;;8.96;64.40;100830.25;7642506;32;40895;-70
2022/10/05 04:22:21;;;;;;;8.07;3.50;;;;;;;8.89;64.33;100813.22;7642901;32;38708;-70
2022/10/05 04:26:44;;;;;;;6.95;4.12;;;;;;;8.62;64.68;100825.38;7632310;32;37095;-70
2022/10/05 04:31:04;;;;;;;8.00;4.43;;;;;;;8.52;64.56;100811.53;7642889;32;40085;-70
2022/10/05 04:35:29;;;;;;;10.85;5.35;;;;;;;8.84;63.38;100794.88;7642930;32;40776;-70
2022/10/05 04:39:59;;;;;;;10.20;5.37;;;;;;;8.87;64.14;100788.97;7624521;32;248830;-70
2022/10/05 04:44:30;;;;;;;9.15;4.82;;;;;;;9.00;64.72;100794.19;7632077;32;37104;-71
2022/10/05 04:49:08;;;;;;;11.00;5.10;;;;;;;9.14;64.97;100800.22;7632175;32;40097;-70
2022/10/05 04:53:52;;;;;;;6.95;4.25;;;;;;;8.98;65.42;100801.72;7632027;32;40782;-70
2022/10/05 04:58:38;;;;;;;11.98;5.30;;;;;;;9.20;64.84;100801.16;7641498;32;37645;-69
2022/10/05 05:03:24;;;;;;;8.18;4.90;;;;;;;9.25;64.91;100797.72;7631715;32;37155;-70
2022/10/05 05:07:50;;;;;;;10.75;5.45;;;;;;;9.40;64.53;100798.06;7631811;32;39389;-70
2022/10/05 05:12:33;;;;;;;11.35;5.32;;;;;;;9.42;64.58;100817.69;7642366;32;39593;-70
2022/10/05 05:17:02;;;;;;;9.52;5.22;;;;;;;9.32;64.68;100812.84;7631385;32;37976;-70
2022/10/05 05:21:41;;;;;;;14.27;5.68;;;;;;;9.34;65.12;100827.03;7641885;32;37943;-70
2022/10/05 05:26:06;;;;;;;8.73;5.12;;;;;;;9.35;65.39;100839.59;7631455;32;39397;-70
2022/10/05 05:30:25;;;;;;;9.85;4.93;;;;;;;9.57;64.84;100847.13;7631291;32;40069;-70
2022/10/05 05:35:25;;;;;;;9.02;4.55;;;;;;;9.69;64.35;100849.81;7631086;32;37926;-70
2022/10/05 05:39:52;;;;;;;12.68;4.55;;;;;;;9.80;63.69;100849.00;7594293;32;37089;-70
2022/10/05 05:44:17;;;;;;;12.43;4.95;;;;;;;9.42;66.30;100861.25;7641531;32;39105;-70
2022/10/05 05:48:45;;;;;;;10.48;4.80;;;;;;;9.68;64.87;100881.69;7633146;32;40757;-70
2022/10/05 05:53:19;;;;;;;196.82;12.05;;;;;;;9.38;65.32;100888.09;7633980;32;38866;-70
2022/10/05 05:57:45;;;;;;;210.02;12.35;;;;;;;9.19;66.28;100902.88;7633964;32;37354;-70
2022/10/05 06:02:14;;;;;;;209.37;11.68;;;;;;;9.38;65.55;100899.00;7633667;32;40127;-79
2022/10/05 06:06:34;;;;;;;64.22;6.20;;;;;;;8.94;69.10;100912.06;7636126;32;40764;-79
2022/10/05 06:10:56;;;;;;;38.47;5.72;;;;;;;9.96;68.67;100896.44;7607689;32;38680;-73
2022/10/05 06:15:27;;;;;;;137.05;8.90;;;;;;;10.20;66.53;100910.00;7618270;32;37976;-73
2022/10/05 06:19:44;;;;;;;46.92;5.80;;;;;;;9.23;66.46;100925.84;7607516;32;40217;-70
2022/10/05 06:24:16;;;;;;;20.20;5.60;;;;;;;9.08;67.47;100928.19;7607354;32;39936;-70
2022/10/05 06:28:32;;;;;;;30.45;5.75;;;;;;;9.63;65.72;100925.13;7617300;32;38979;-70
2022/10/05 06:33:03;;;;;;;9.95;4.95;;;;;;;9.68;66.52;100933.41;7607320;32;37828;-71
2022/10/05 06:37:51;;;;;;;8.90;4.62;;;;;;;10.06;67.57;100940.22;7607381;32;39474;-71
2022/10/05 06:42:07;;;;;;;8.57;5.00;;;;;;;10.18;66.77;100933.94;7607156;32;40830;-71
2022/10/05 06:46:38;;;;;;;10.18;5.32;;;;;;;10.27;67.85;100946.94;7606995;32;38512;-70
2022/10/05 06:51:08;;;;;;;11.63;5.43;;;;;;;10.65;66.00;100939.25;7607168;32;37351;-70
2022/10/05 06:55:48;;;;;;;11.43;5.47;;;;;;;10.72;65.94;100923.56;7617266;32;39542;-70
2022/10/05 07:00:19;;;;;;;10.02;5.43;;;;;;;11.06;66.08;100931.78;7617091;32;40635;-69
2022/10/05 07:05:00;;;;;;;40.80;21.52;;;;;;;10.81;67.79;100951.25;7617594;32;38176;-70
2022/10/05 07:09:43;;;;;;;12.80;6.80;;;;;;;11.35;66.29;100939.88;7606880;32;36968;-69
2022/10/05 07:14:28;;;;;;;9.27;5.25;;;;;;;10.93;68.44;100948.47;7606975;32;40069;-70
2022/10/05 07:19:20;;;;;;;9.70;5.40;;;;;;;11.60;67.04;100945.72;7600107;32;40678;-69
2022/10/05 07:23:58;;;;;;;12.88;8.65;;;;;;;11.82;66.64;100936.78;7604834;32;37659;-69
2022/10/05 07:28:30;;;;;;;16.77;9.68;;;;;;;12.35;65.60;100926.28;7606799;32;36788;-71
2022/10/05 07:33:21;;;;;;;17.62;9.27;;;;;;;11.77;67.94;100933.97;7606651;32;39683;-70
2022/10/05 07:37:54;;;;;;;19.70;7.93;;;;;;;11.75;68.59;100941.59;7600003;32;39791;-70
2022/10/05 07:42:30;;;;;;;23.75;11.88;;;;;;;12.54;66.04;100940.44;7616535;32;37931;-70
2022/10/05 07:47:12;;;;;;;12.37;6.55;;;;;;;13.15;65.58;100940.19;7616091;32;37184;-70
2022/10/05 07:51:44;;;;;;;10.70;5.62;;;;;;;13.24;65.54;100935.88;7616713;32;39077;-70
2022/10/05 07:56:05;;;;;;;10.98;4.80;;;;;;;12.36;67.19;100931.47;7606484;32;40516;-70
2022/10/05 08:00:23;;;;;;;13.93;4.68;;;;;;;12.15;66.99;100930.41;7616812;32;38102;-69
2022/10/05 08:04:59;;;;;;;8.85;4.62;;;;;;;12.27;66.72;100913.84;7617238;32;37214;-70
2022/10/05 08:09:38;;;;;;;9.60;5.37;;;;;;;12.42;65.41;100909.62;7606013;32;40057;-71
2022/10/05 08:14:16;;;;;;;8.40;5.05;;;;;;;13.26;66.07;100911.81;7606362;32;39929;-70
2022/10/05 08:19:27;;;;;;;8.05;4.85;;;;;;;13.53;65.25;100922.69;7606211;32;38796;-70
2022/10/05 08:23:49;;;;;;;9.02;4.43;;;;;;;14.02;63.17;100912.53;7567726;32;38084;-70
2022/10/05 08:28:22;;;;;;;7.63;3.97;;;;;;;14.61;62.69;100901.25;7606314;32;39459;-69
2022/10/05 08:32:54;;;;;;;17.45;4.37;;;;;;;15.16;61.84;100884.25;7616101;32;40007;-71
2022/10/05 08:37:34;;;;;;;8.18;3.20;;;;;;;15.48;60.47;100891.34;7606130;32;38140;-70
2022/10/05 08:41:56;;;;;;;7.18;3.80;;;;;;;15.74;58.65;100892.13;7615735;32;36782;-71
2022/10/05 08:46:35;;;;;;;7.57;4.20;;;;;;;16.21;58.34;100901.03;7616834;32;39031;-70
2022/10/05 08:51:16;;;;;;;8.85;3.67;;;;;;;14.99;61.27;100915.56;7606003;32;40975;-70
2022/10/05 08:56:24;;;;;;;5.68;2.83;;;;;;;15.07;60.37;100922.41;7605840;32;38035;-70
2022/10/05 09:00:53;;;;;;;5.15;2.40;;;;;;;16.47;57.36;100919.06;7605661;32;37826;-69
2022/10/05 09:05:24;;;;;;;8.30;2.72;;;;;;;17.48;53.45;100925.22;7605497;32;39917;-70
2022/10/05 09:09:55;;;;;;;5.25;2.25;;;;;;;17.87;50.55;100916.84;7605460;32;39702;-70
2022/10/05 09:14:29;;;;;;;4.18;2.28;;;;;;;18.30;47.62;100911.34;7603413;32;38071;-70
2022/10/05 09:19:07;;;;;;;4.37;2.10;;;;;;;18.82;48.02;100905.09;7602457;32;37198;-70
2022/10/05 09:23:44;;;;;;;5.00;2.40;;;;;;;18.87;46.48;100891.22;7602005;32;40128;-70
2022/10/05 09:28:21;;;;;;;5.70;1.90;;;;;;;18.87;46.62;100903.09;7604013;32;39605;-71
2022/10/05 09:32:53;;;;;;;8.30;3.35;;;;;;;18.50;48.52;100901.13;7605227;32;38780;-71
2022/10/05 09:37:21;;;;;;;6.68;2.35;;;;;;;18.53;49.88;100911.59;7605152;32;37147;-71
2022/10/05 09:41:49;;;;;;;3.50;2.10;;;;;;;18.76;48.34;100910.69;7605087;32;39292;-71
2022/10/05 09:46:24;;;;;;;7.20;2.40;;;;;;;19.31;46.27;100907.31;7604854;32;40080;-71
2022/10/05 09:50:50;;;;;;;4.47;1.80;;;;;;;19.84;45.18;100900.56;7604706;32;37777;-71
2022/10/05 09:55:18;;;;;;;4.93;1.92;;;;;;;20.19;43.76;100906.47;7604743;32;37301;-71
2022/10/05 09:59:45;;;;;;;5.43;1.90;;;;;;;20.04;43.32;100904.87;7604390;32;40182;-71
2022/10/05 10:04:05;;;;;;;6.60;2.05;;;;;;;20.67;41.21;100896.06;7615224;32;40840;-71
2022/10/05 10:08:45;;;;;;;4.53;1.67;;;;;;;21.30;41.33;100902.53;7604292;32;37961;-71
2022/10/05 10:13:27;;;;;;;6.62;2.15;;;;;;;21.57;38.43;100898.78;7614362;32;37008;-71
2022/10/05 10:17:55;;;;;;;4.03;2.05;;;;;;;21.24;38.14;100896.31;7604124;32;40247;-71
2022/10/05 10:22:46;;;;;;;2.85;1.90;;;;;;;22.23;38.09;100895.25;7615195;32;39909;-72
2022/10/05 10:27:15;;;;;;;5.00;1.75;;;;;;;22.26;35.68;100889.06;7603798;32;37828;-71
2022/10/05 10:31:39;;;;;;;8.13;1.92;;;;;;;21.98;37.06;100894.06;7603896;32;37836;-71
2022/10/05 10:36:10;;;;;;;2.87;1.77;;;;;;;22.42;34.30;100886.66;7618574;32;39253;-72
2022/10/05 10:41:08;;;;;;;3.17;1.70;;;;;;;22.33;34.33;100894.16;7617659;32;39986;-72
2022/10/05 10:45:55;;;;;;;4.30;1.75;;;;;;;21.34;35.70;100892.44;7607341;32;37715;-71
2022/10/05 10:50:39;;;;;;;3.40;2.00;;;;;;;21.63;35.11;100886.44;7607422;32;37109;-71
2022/10/05 10:55:19;;;;;;;4.53;2.03;;;;;;;21.99;34.89;100890.97;7616779;32;39388;-71
2022/10/05 11:00:07;;;;;;;5.15;2.10;;;;;;;20.90;37.25;100894.91;7607087;32;39846;-71
2022/10/05 11:04:44;;;;;;;3.58;2.10;;;;;;;22.01;36.25;100898.94;7607120;32;37975;-72
2022/10/05 11:09:10;;;;;;;5.60;1.92;;;;;;;21.73;35.81;100891.69;7607208;32;36888;-72
2022/10/05 11:13:54;;;;;;;4.37;1.77;;;;;;;22.72;34.97;100893.22;7617995;32;38977;-71
2022/10/05 11:18:16;;;;;;;4.00;1.98;;;;;;;21.99;35.38;100882.62;7607027;32;40143;-72
2022/10/05 11:23:03;;;;;;;7.32;2.20;;;;;;;22.24;34.36;100880.22;7606804;32;38279;-72
2022/10/05 11:27:36;;;;;;;3.08;1.70;;;;;;;22.58;33.65;100873.09;7606906;32;37824;-72
2022/10/05 11:32:31;;;;;;;3.83;1.90;;;;;;;22.75;32.08;100867.53;7607010;32;39063;-72
2022/10/05 11:36:55;;;;;;;3.95;1.83;;;;;;;22.95;32.08;100851.31;7616231;32;40856;-72
2022/10/05 11:41:45;;;;;;;6.68;1.85;;;;;;;23.31;31.03;100842.56;7617498;32;37904;-72
2022/10/05 11:46:28;;;;;;;3.92;1.70;;;;;;;23.44;30.82;100843.53;7606134;32;38210;-72
2022/10/05 11:51:15;;;;;;;2.00;1.65;;;;;;;23.40;31.42;100839.75;7606654;32;39316;-72
2022/10/05 11:55:40;;;;;;;2.97;1.70;;;;;;;22.77;32.41;100844.97;7606628;32;40165;-73
2022/10/05 11:59:58;;;;;;;4.32;1.52;;;;;;;22.35;33.33;100834.34;7606361;32;37970;-72
2022/10/05 12:04:38;;;;;;;2.47;1.70;;;;;;;22.50;32.76;100836.63;7617540;32;36787;-72
2022/10/05 12:09:22;;;;;;;3.78;1.77;;;;;;;23.09;32.34;100831.69;7615441;32;39128;-71
2022/10/05 12:14:16;;;;;;;3.17;1.55;;;;;;;23.21;31.60;100820.69;7616531;32;40206;-72
2022/10/05 12:18:32;;;;;;;3.40;1.65;;;;;;;23.31;30.97;100814.75;7617558;32;37677;-72
2022/10/05 12:22:57;;;;;;;4.00;1.95;;;;;;;22.49;31.32;100821.13;7606295;32;37185;-72
2022/10/05 12:27:21;;;;;;;7.55;2.42;;;;;;;22.75;32.40;100822.22;7606256;32;39853;-72
2022/10/05 12:31:40;;;;;;;6.25;2.05;;;;;;;20.36;36.96;100821.97;7616935;32;39970;-72
2022/10/05 12:36:13;;;;;;;5.78;1.62;;;;;;;21.94;34.73;100811.41;7606098;32;37769;-72
2022/10/05 12:40:40;;;;;;;4.87;2.42;;;;;;;22.04;34.84;100801.97;7616592;32;37172;-72
2022/10/05 12:45:22;;;;;;;2.17;1.52;;;;;;;22.83;32.23;100799.16;7605996;32;39351;-73
2022/10/05 12:49:44;;;;;;;2.95;1.50;;;;;;;22.57;33.28;100807.56;7615611;32;40876;-73
2022/10/05 12:54:07;;;;;;;6.50;1.98;;;;;;;22.66;33.45;100802.78;7616694;32;38671;-73
2022/10/05 12:58:39;;;;;;;;;;;;;;;23.07;32.78;100798.66;7617199;32;37251;-72
2022/10/05 13:03:00;;;;;;;4.78;2.35;;;;;;;23.20;32.47;100803.19;7605848;32;39625;-73
2022/10/05 13:07:40;;;;;;;4.72;2.22;;;;;;;23.28;34.05;100801.50;7605669;32;39921;-73
2022/10/05 13:12:02;;;;;;;2.80;1.77;;;;;;;22.57;35.00;100810.34;7605580;32;37677;-73
2022/10/05 13:16:49;;;;;;;3.05;2.00;;;;;;;21.97;35.24;100804.38;7616115;32;37790;-72
2022/10/05 13:21:20;;;;;;;4.68;2.25;;;;;;;22.40;33.55;100794.47;7592854;32;39260;-72
2022/10/05 13:25:43;;;;;;;3.42;2.25;;;;;;;22.25;34.11;100804.91;7615785;32;39934;-72
2022/10/05 13:30:11;;;;;;;4.93;2.40;;;;;;;22.39;34.50;100809.53;7615790;32;38060;-72
2022/10/05 13:35:04;;;;;;;5.62;2.40;;;;;;;22.06;35.92;100801.62;7605258;32;37320;-72
2022/10/05 13:39:41;;;;;;;4.60;2.22;;;;;;;21.97;35.41;100801.59;7613516;32;39931;-72
2022/10/05 13:44:16;;;;;;;4.25;1.80;;;;;;;21.89;35.64;100811.56;7604973;32;39986;-72
2022/10/05 13:48:51;;;;;;;3.95;1.60;;;;;;;21.78;35.50;100813.00;7614833;32;37714;-72
2022/10/05 13:53:35;;;;;;;5.37;1.92;;;;;;;21.83;35.76;100812.03;7604759;32;37852;-73
2022/10/05 13:58:04;;;;;;;4.32;1.62;;;;;;;21.66;36.19;100810.03;7604751;32;39479;-71
2022/10/05 14:02:26;;;;;;;6.07;2.00;;;;;;;21.69;35.96;100803.84;7614678;32;39955;-71
2022/10/05 14:06:43;;;;;;;3.30;2.00;;;;;;;21.81;36.42;100801.25;7604438;32;38076;-72
2022/10/05 14:11:19;;;;;;;4.57;1.87;;;;;;;21.59;35.70;100802.19;7607790;32;36732;-72
2022/10/05 14:15:35;;;;;;;4.40;1.83;;;;;;;21.73;35.47;100808.44;7617124;32;40062;-72
2022/10/05 14:20:01;;;;;;;5.07;1.75;;;;;;;21.38;36.48;100811.03;7607766;32;39954;-72
2022/10/05 14:24:34;;;;;;;2.45;1.70;;;;;;;21.47;36.10;100801.97;7607602;32;38022;-72
2022/10/05 14:29:17;;;;;;;2.70;1.92;;;;;;;21.19;36.43;100799.37;7607503;32;37314;-71
2022/10/05 14:33:36;;;;;;;6.00;1.80;;;;;;;21.34;36.81;100798.16;7618318;32;39360;-72
2022/10/05 14:38:15;;;;;;;4.03;1.80;;;;;;;21.12;36.16;100790.72;7607389;32;39920;-71
2022/10/05 14:42:40;;;;;;;6.37;1.75;;;;;;;21.19;36.64;100794.66;7607431;32;38337;-72
2022/10/05 14:47:19;;;;;;;5.70;1.87;;;;;;;20.92;38.64;100795.66;7617230;32;37040;-72
2022/10/05 14:51:36;;;;;;;5.47;2.03;;;;;;;20.79;37.60;100788.25;7607524;32;39372;-71
2022/10/05 14:56:01;;;;;;;2.55;1.80;;;;;;;20.59;40.17;100803.37;7618264;32;40603;-71
2022/10/05 15:00:18;;;;;;;3.00;1.75;;;;;;;21.05;38.64;100776.50;7607070;32;37997;-72
2022/10/05 15:04:58;;;;;;;4.50;1.90;;;;;;;20.86;38.89;100777.53;7607199;32;37877;-71
2022/10/05 15:09:32;;;;;;;4.12;1.95;;;;;;;20.86;39.58;100783.06;7606912;32;39383;-72
2022/10/05 15:13:48;;;;;;;3.30;1.90;;;;;;;20.67;40.00;100780.50;7607160;32;40014;-71
2022/10/05 15:18:33;;;;;;;7.40;2.55;;;;;;;20.48;39.93;100771.56;7617607;32;38666;-71
2022/10/05 15:23:11;;;;;;;4.95;2.05;;;;;;;20.30;40.55;100771.44;7616430;32;36842;-71
2022/10/05 15:27:52;;;;;;;3.55;2.17;;;;;;;20.39;40.82;100769.53;7606924;32;40048;-71
2022/10/05 15:32:18;;;;;;;4.05;1.85;;;;;;;19.82;40.02;100761.72;7591208;32;40839;-71
2022/10/05 15:36:38;;;;;;;5.28;1.95;;;;;;;20.03;41.44;100758.50;7606859;32;37600;-71
2022/10/05 15:41:01;;;;;;;13.13;2.55;;;;;;;19.80;42.14;100768.66;7607138;32;36850;-71
2022/10/05 15:45:28;;;;;;;3.97;2.33;;;;;;;19.81;42.30;100770.31;7617612;32;39305;-71
2022/10/05 15:50:09;;;;;;;4.95;2.42;;;;;;;19.94;41.85;100776.94;7606611;32;40810;-71
2022/10/05 15:55:00;;;;;;;7.53;2.60;;;;;;;19.74;43.00;100773.50;7606406;32;38851;-71
2022/10/05 15:59:37;;;;;;;5.37;2.50;;;;;;;19.55;43.52;100775.56;7609671;32;36855;-71
2022/10/05 16:04:14;;;;;;;8.52;3.05;;;;;;;19.44;44.38;100770.22;7606435;32;40148;-71
2022/10/05 16:08:52;;;;;;;4.62;2.70;;;;;;;19.12;45.80;100773.91;7606411;32;39803;-71
2022/10/05 16:13:26;;;;;;;5.22;2.60;;;;;;;19.04;46.97;100769.91;7606437;32;38091;-71
2022/10/05 16:18:04;;;;;;;12.63;3.22;;;;;;;19.06;46.23;100773.19;7616788;32;37832;-71
2022/10/05 16:22:48;;;;;;;5.32;2.83;;;;;;;18.58;47.19;100782.53;7606285;32;40056;-71
2022/10/05 16:27:15;;;;;;;8.75;3.10;;;;;;;18.57;47.96;100785.59;7611118;32;40726;-70
2022/10/05 16:31:53;;;;;;;8.10;3.15;;;;;;;18.43;48.52;100798.53;7631704;32;37902;-70
2022/10/05 16:36:21;;;;;;;7.32;2.72;;;;;;;18.30;48.61;100800.09;7592801;32;37148;-71
2022/10/05 16:40:57;;;;;;;6.62;3.42;;;;;;;18.04;49.18;100807.94;7613578;32;39424;-71
2022/10/05 16:45:29;;;;;;;4.05;2.72;;;;;;;18.01;49.58;100810.16;7604750;32;39558;-71
2022/10/05 16:49:46;;;;;;;9.23;3.10;;;;;;;17.77;50.83;100814.88;7619669;32;38773;-72
2022/10/05 16:54:12;;;;;;;15.35;3.40;;;;;;;17.72;50.71;100818.53;7642523;32;37119;-73
2022/10/05 16:58:42;;;;;;;7.70;3.10;;;;;;;17.83;50.10;100824.72;7631490;32;40101;-71
2022/10/05 17:03:09;;;;;;;5.30;3.08;;;;;;;17.57;50.71;100827.78;7630882;32;40748;-71
2022/10/05 17:07:49;;;;;;;11.93;3.35;;;;;;;17.61;50.66;100833.56;7630823;32;38714;-70
2022/10/05 17:12:15;;;;;;;8.15;3.25;;;;;;;17.54;50.95;100838.59;7621597;32;37945;-71
2022/10/05 17:16:42;;;;;;;6.40;3.22;;;;;;;17.38;51.09;100835.19;7604950;32;40047;-71
2022/10/05 17:21:14;;;;;;;6.32;3.20;;;;;;;17.23;51.74;100833.41;7604596;32;40099;-71
2022/10/05 17:25:52;;;;;;;8.18;3.30;;;;;;;17.21;51.51;100835.62;7605980;32;37600;-70
2022/10/05 17:30:28;;;;;;;7.55;3.33;;;;;;;17.17;51.66;100835.38;7633145;32;37305;-71
2022/10/05 17:34:59;;;;;;;10.07;3.83;;;;;;;17.08;51.78;100839.91;7630839;32;39042;-71
2022/10/05 17:39:15;;;;;;;8.15;3.87;;;;;;;17.24;51.02;100838.62;7630238;32;39983;-71
2022/10/05 17:43:32;;;;;;;11.73;4.03;;;;;;;17.52;50.02;100836.13;7629356;32;38771;-71
2022/10/05 17:48:08;;;;;;;10.73;3.67;;;;;;;17.36;49.66;100842.94;7617039;32;36926;-71
2022/10/05 17:57:03;;;;;;;11.80;4.12;;;;;;;17.36;50.27;100842.94;7630440;32;40637;-71
2022/10/05 18:01:38;;;;;;;10.20;4.97;;;;;;;16.96;51.18;100851.28;7624500;32;38044;-71
2022/10/05 18:06:27;;;;;;;11.52;4.90;;;;;;;16.73;51.62;100846.50;7629481;32;37782;-71
2022/10/05 18:11:07;;;;;;;13.18;4.85;;;;;;;17.12;50.16;100840.13;7629594;32;40108;-71
2022/10/05 18:15:24;;;;;;;8.52;3.60;;;;;;;17.27;49.66;100840.81;7619923;32;39940;-70
2022/10/05 18:20:00;;;;;;;9.38;4.05;;;;;;;16.79;51.44;100848.91;7622300;32;37940;-71
2022/10/05 18:24:25;;;;;;;7.35;3.42;;;;;;;17.07;51.21;100849.25;7628554;32;37192;-71
2022/10/05 18:28:48;;;;;;;7.82;3.65;;;;;;;16.87;50.86;100847.53;7629158;32;39322;-70
2022/10/05 18:33:24;;;;;;;8.13;3.70;;;;;;;16.88;51.38;100838.13;7602028;32;39768;-71
2022/10/05 18:37:46;;;;;;;9.13;4.15;;;;;;;16.92;51.13;100835.62;7623989;32;37957;-70
2022/10/05 18:42:14;;;;;;;8.80;4.03;;;;;;;16.75;52.34;100830.50;7610628;32;37043;-71
2022/10/05 18:46:36;;;;;;;10.25;4.22;;;;;;;16.67;51.73;100832.75;7616843;32;39959;-71
2022/10/05 18:51:04;;;;;;;10.85;4.28;;;;;;;16.56;52.30;100841.38;7628479;32;39924;-71
2022/10/05 18:55:30;;;;;;;10.07;4.28;;;;;;;16.03;53.45;100850.25;7594185;32;38626;-71
2022/10/05 19:00:06;;;;;;;8.32;4.40;;;;;;;16.46;52.96;100845.03;7632587;32;37179;-71
2022/10/05 19:04:33;;;;;;;10.25;5.03;;;;;;;16.59;52.54;100846.31;7632041;32;40063;-71
2022/10/05 19:09:27;;;;;;;9.95;4.97;;;;;;;16.30;53.28;100836.87;7628323;32;39919;-71
2022/10/05 19:14:18;;;;;;;13.57;5.57;;;;;;;16.31;53.95;100846.78;7625445;32;38035;-71
2022/10/05 19:18:38;;;;;;;13.62;5.50;;;;;;;16.30;54.05;100852.59;7615420;32;35559;-71
2022/10/05 19:23:16;;;;;;;12.57;5.82;;;;;;;16.17;54.39;100855.94;7632480;32;40185;-71
2022/10/05 19:28:09;;;;;;;11.15;6.15;;;;;;;16.14;54.24;100855.41;7632058;32;40458;-71
2022/10/05 19:32:42;;;;;;;11.10;5.68;;;;;;;16.23;53.95;100860.31;7632698;32;38738;-71
2022/10/05 19:37:09;;;;;;;12.02;5.35;;;;;;;16.11;54.22;100853.22;7622438;32;37965;-71
2022/10/05 19:41:44;;;;;;;14.25;5.80;;;;;;;16.13;55.69;100856.50;7618500;32;40130;-72
2022/10/05 19:46:20;;;;;;;9.80;5.25;;;;;;;16.09;54.35;100865.59;7610033;32;40029;-71
2022/10/05 19:50:38;;;;;;;13.45;6.00;;;;;;;16.07;54.26;100862.31;7623738;32;38630;-72
2022/10/05 19:55:15;;;;;;;11.10;5.65;;;;;;;16.10;54.19;100867.25;7642110;32;38731;-72
2022/10/05 19:59:31;;;;;;;13.10;6.18;;;;;;;15.92;54.56;100874.22;7631710;32;39469;-72
2022/10/05 20:03:48;;;;;;;16.27;5.82;;;;;;;15.85;54.64;100874.53;7631842;32;40855;-71
2022/10/05 20:08:08;;;;;;;15.55;6.53;;;;;;;15.84;54.69;100874.81;7628106;32;37951;-72
2022/10/05 20:12:46;;;;;;;12.27;5.57;;;;;;;15.65;54.93;100872.62;7617206;32;36855;-72
2022/10/05 20:22:26;;;;;;;9.57;5.90;;;;;;;15.93;54.32;100882.16;7623776;32;39967;-72
2022/10/05 20:27:31;;;;;;;12.98;6.28;;;;;;;15.91;54.26;100891.81;7622093;32;38737;-72
2022/10/05 20:31:47;;;;;;;18.98;5.97;;;;;;;15.44;55.72;100888.34;7624046;32;37404;-72
2022/10/05 20:36:03;;;;;;;12.70;6.32;;;;;;;15.53;55.24;100891.34;7609245;32;40316;-71
2022/10/05 20:40:20;;;;;;;12.10;6.18;;;;;;;15.64;54.93;100889.41;7607314;32;39907;-71
2022/10/05 20:44:37;;;;;;;13.43;5.97;;;;;;;15.68;54.84;100899.56;7631800;32;37778;-71
2022/10/05 20:48:53;;;;;;;18.00;6.75;;;;;;;15.45;55.60;100897.41;7614903;32;37960;-72
2022/10/05 20:53:09;;;;;;;16.58;7.05;;;;;;;15.10;57.41;100888.09;7617311;32;40169;-71
2022/10/05 20:57:27;;;;;;;14.95;8.02;;;;;;;15.16;57.70;100897.97;7631794;32;39920;-72
2022/10/05 21:01:46;;;;;;;13.88;7.00;;;;;;;14.81;60.14;100896.88;7631363;32;38754;-72
2022/10/05 21:06:02;;;;;;;14.13;7.03;;;;;;;14.72;59.97;100904.81;7631647;32;37081;-72
2022/10/05 21:10:19;;;;;;;16.65;7.00;;;;;;;14.64;59.58;100902.63;7631439;32;39286;-71
2022/10/05 21:14:36;;;;;;;11.45;6.85;;;;;;;14.56;58.99;100894.91;7631187;32;40907;-71